sensor_id;sensor_type;location;lat;lon;timestamp;P1;durP1;ratioP1;P2;durP2;ratioP2
59169;SDS011;52474;52.236;5.114;2023-02-04T00:00:18;17.65;;;2.50;;
59169;SDS011;52474;52.236;5.114;2023-02-04T00:02:45;18.48;;;2.45;;
59169;SDS011;52474;52.236;5.114;2023-02-04T00:05:11;12.73;;;2.72;;
59169;SDS011;52474;52.236;5.114;2023-02-04T00:07:37;16.80;;;3.17;;
59169;SDS011;52474;52.236;5.114;2023-02-04T00:10:04;15.07;;;2.97;;
59169;SDS011;52474;52.236;5.114;2023-02-04T00:12:33;15.57;;;2.63;;
59169;SDS011;52474;52.236;5.114;2023-02-04T00:14:59;13.93;;;2.15;;
59169;SDS011;52474;52.236;5.114;2023-02-04T00:17:25;23.10;;;4.03;;
59169;SDS011;52474;52.236;5.114;2023-02-04T00:19:50;16.88;;;2.75;;
59169;SDS011;52474;52.236;5.114;2023-02-04T00:22:19;16.77;;;2.90;;
59169;SDS011;52474;52.236;5.114;2023-02-04T00:24:45;16.70;;;2.38;;
59169;SDS011;52474;52.236;5.114;2023-02-04T00:27:14;16.55;;;2.63;;
59169;SDS011;52474;52.236;5.114;2023-02-04T00:29:40;21.02;;;3.70;;
59169;SDS011;52474;52.236;5.114;2023-02-04T00:32:06;19.83;;;4.18;;
59169;SDS011;52474;52.236;5.114;2023-02-04T00:34:32;18.63;;;2.58;;
59169;SDS011;52474;52.236;5.114;2023-02-04T00:36:57;20.10;;;3.75;;
59169;SDS011;52474;52.236;5.114;2023-02-04T00:39:23;15.88;;;2.33;;
59169;SDS011;52474;52.236;5.114;2023-02-04T00:41:49;21.35;;;3.50;;
59169;SDS011;52474;52.236;5.114;2023-02-04T00:44:14;20.40;;;3.42;;
59169;SDS011;52474;52.236;5.114;2023-02-04T00:46:41;20.10;;;3.15;;
59169;SDS011;52474;52.236;5.114;2023-02-04T00:49:07;25.17;;;3.17;;
59169;SDS011;52474;52.236;5.114;2023-02-04T00:51:37;21.80;;;3.03;;
59169;SDS011;52474;52.236;5.114;2023-02-04T00:54:04;20.52;;;3.65;;
59169;SDS011;52474;52.236;5.114;2023-02-04T00:56:30;20.58;;;2.97;;
59169;SDS011;52474;52.236;5.114;2023-02-04T00:58:56;21.48;;;2.70;;
59169;SDS011;52474;52.236;5.114;2023-02-04T01:01:22;18.63;;;3.60;;
59169;SDS011;52474;52.236;5.114;2023-02-04T01:03:48;20.90;;;3.13;;
59169;SDS011;52474;52.236;5.114;2023-02-04T01:06:13;18.08;;;2.80;;
59169;SDS011;52474;52.236;5.114;2023-02-04T01:08:39;26.45;;;3.25;;
59169;SDS011;52474;52.236;5.114;2023-02-04T01:11:05;20.92;;;3.20;;
59169;SDS011;52474;52.236;5.114;2023-02-04T01:13:31;14.07;;;2.75;;
59169;SDS011;52474;52.236;5.114;2023-02-04T01:15:56;24.02;;;4.07;;
59169;SDS011;52474;52.236;5.114;2023-02-04T01:18:22;21.80;;;3.25;;
59169;SDS011;52474;52.236;5.114;2023-02-04T01:20:48;17.38;;;2.72;;
59169;SDS011;52474;52.236;5.114;2023-02-04T01:23:15;16.65;;;3.10;;
59169;SDS011;52474;52.236;5.114;2023-02-04T01:25:41;20.00;;;3.25;;
59169;SDS011;52474;52.236;5.114;2023-02-04T01:28:07;15.57;;;3.10;;
59169;SDS011;52474;52.236;5.114;2023-02-04T01:30:33;20.30;;;3.38;;
59169;SDS011;52474;52.236;5.114;2023-02-04T01:32:59;18.13;;;2.63;;
59169;SDS011;52474;52.236;5.114;2023-02-04T01:35:24;18.10;;;3.17;;
59169;SDS011;52474;52.236;5.114;2023-02-04T01:37:50;23.63;;;2.85;;
59169;SDS011;52474;52.236;5.114;2023-02-04T01:40:16;22.17;;;3.78;;
59169;SDS011;52474;52.236;5.114;2023-02-04T01:42:42;23.00;;;4.82;;
59169;SDS011;52474;52.236;5.114;2023-02-04T01:45:08;19.40;;;4.40;;
59169;SDS011;52474;52.236;5.114;2023-02-04T01:47:35;32.40;;;4.18;;
59169;SDS011;52474;52.236;5.114;2023-02-04T01:50:04;17.60;;;3.85;;
59169;SDS011;52474;52.236;5.114;2023-02-04T01:52:33;23.02;;;4.53;;
59169;SDS011;52474;52.236;5.114;2023-02-04T01:55:01;29.00;;;5.03;;
59169;SDS011;52474;52.236;5.114;2023-02-04T01:57:27;27.02;;;4.13;;
59169;SDS011;52474;52.236;5.114;2023-02-04T01:59:53;29.20;;;4.88;;
59169;SDS011;52474;52.236;5.114;2023-02-04T02:02:39;28.35;;;5.93;;
59169;SDS011;52474;52.236;5.114;2023-02-04T02:05:16;26.33;;;5.82;;
59169;SDS011;52474;52.236;5.114;2023-02-04T02:07:46;19.83;;;3.97;;
59169;SDS011;52474;52.236;5.114;2023-02-04T02:10:12;21.65;;;4.70;;
59169;SDS011;52474;52.236;5.114;2023-02-04T02:12:39;28.83;;;5.55;;
59169;SDS011;52474;52.236;5.114;2023-02-04T02:15:07;28.77;;;4.97;;
59169;SDS011;52474;52.236;5.114;2023-02-04T02:17:33;26.48;;;4.60;;
59169;SDS011;52474;52.236;5.114;2023-02-04T02:19:59;23.92;;;4.43;;
59169;SDS011;52474;52.236;5.114;2023-02-04T02:22:39;31.83;;;5.25;;
59169;SDS011;52474;52.236;5.114;2023-02-04T02:25:10;27.15;;;4.78;;
59169;SDS011;52474;52.236;5.114;2023-02-04T02:27:37;30.35;;;5.32;;
59169;SDS011;52474;52.236;5.114;2023-02-04T02:30:04;27.00;;;4.60;;
59169;SDS011;52474;52.236;5.114;2023-02-04T02:32:30;20.48;;;3.92;;
59169;SDS011;52474;52.236;5.114;2023-02-04T02:34:56;23.42;;;4.72;;
59169;SDS011;52474;52.236;5.114;2023-02-04T02:37:22;22.55;;;3.72;;
59169;SDS011;52474;52.236;5.114;2023-02-04T02:39:48;30.65;;;3.97;;
59169;SDS011;52474;52.236;5.114;2023-02-04T02:42:14;25.33;;;4.50;;
59169;SDS011;52474;52.236;5.114;2023-02-04T02:44:42;32.83;;;4.63;;
59169;SDS011;52474;52.236;5.114;2023-02-04T02:47:11;23.20;;;4.13;;
59169;SDS011;52474;52.236;5.114;2023-02-04T02:49:39;21.23;;;4.15;;
59169;SDS011;52474;52.236;5.114;2023-02-04T02:52:08;20.77;;;4.82;;
59169;SDS011;52474;52.236;5.114;2023-02-04T02:54:36;25.80;;;3.95;;
59169;SDS011;52474;52.236;5.114;2023-02-04T02:57:04;17.75;;;3.85;;
59169;SDS011;52474;52.236;5.114;2023-02-04T02:59:36;17.00;;;3.85;;
59169;SDS011;52474;52.236;5.114;2023-02-04T03:02:02;23.08;;;4.07;;
59169;SDS011;52474;52.236;5.114;2023-02-04T03:04:33;22.80;;;4.15;;
59169;SDS011;52474;52.236;5.114;2023-02-04T03:07:04;24.65;;;4.50;;
59169;SDS011;52474;52.236;5.114;2023-02-04T03:09:30;25.77;;;4.07;;
59169;SDS011;52474;52.236;5.114;2023-02-04T03:11:58;19.58;;;3.33;;
59169;SDS011;52474;52.236;5.114;2023-02-04T03:14:24;25.13;;;4.00;;
59169;SDS011;52474;52.236;5.114;2023-02-04T03:16:52;29.40;;;4.70;;
59169;SDS011;52474;52.236;5.114;2023-02-04T03:19:20;23.75;;;3.58;;
59169;SDS011;52474;52.236;5.114;2023-02-04T03:21:48;24.65;;;4.50;;
59169;SDS011;52474;52.236;5.114;2023-02-04T03:24:14;24.30;;;4.65;;
59169;SDS011;52474;52.236;5.114;2023-02-04T03:26:39;27.48;;;3.80;;
59169;SDS011;52474;52.236;5.114;2023-02-04T03:29:06;16.63;;;3.10;;
59169;SDS011;52474;52.236;5.114;2023-02-04T03:31:33;24.17;;;4.50;;
59169;SDS011;52474;52.236;5.114;2023-02-04T03:33:59;18.60;;;3.35;;
59169;SDS011;52474;52.236;5.114;2023-02-04T03:36:24;16.95;;;3.70;;
59169;SDS011;52474;52.236;5.114;2023-02-04T03:38:53;16.73;;;3.40;;
59169;SDS011;52474;52.236;5.114;2023-02-04T03:41:18;25.42;;;3.72;;
59169;SDS011;52474;52.236;5.114;2023-02-04T03:43:44;14.27;;;3.40;;
59169;SDS011;52474;52.236;5.114;2023-02-04T03:46:10;24.52;;;4.00;;
59169;SDS011;52474;52.236;5.114;2023-02-04T03:48:35;24.95;;;3.97;;
59169;SDS011;52474;52.236;5.114;2023-02-04T03:51:01;21.75;;;4.45;;
59169;SDS011;52474;52.236;5.114;2023-02-04T03:53:27;23.98;;;4.25;;
59169;SDS011;52474;52.236;5.114;2023-02-04T03:55:53;21.80;;;3.67;;
59169;SDS011;52474;52.236;5.114;2023-02-04T03:58:18;21.10;;;3.72;;
59169;SDS011;52474;52.236;5.114;2023-02-04T04:00:44;24.38;;;4.47;;
59169;SDS011;52474;52.236;5.114;2023-02-04T04:03:10;18.17;;;4.55;;
59169;SDS011;52474;52.236;5.114;2023-02-04T04:05:35;27.63;;;4.28;;
59169;SDS011;52474;52.236;5.114;2023-02-04T04:08:01;19.63;;;4.15;;
59169;SDS011;52474;52.236;5.114;2023-02-04T04:10:27;21.67;;;4.22;;
59169;SDS011;52474;52.236;5.114;2023-02-04T04:12:55;26.63;;;4.05;;
59169;SDS011;52474;52.236;5.114;2023-02-04T04:15:21;19.63;;;4.30;;
59169;SDS011;52474;52.236;5.114;2023-02-04T04:17:47;21.60;;;4.40;;
59169;SDS011;52474;52.236;5.114;2023-02-04T04:20:13;20.60;;;4.13;;
59169;SDS011;52474;52.236;5.114;2023-02-04T04:22:39;20.40;;;4.72;;
59169;SDS011;52474;52.236;5.114;2023-02-04T04:25:05;18.90;;;3.90;;
59169;SDS011;52474;52.236;5.114;2023-02-04T04:27:31;15.90;;;4.00;;
59169;SDS011;52474;52.236;5.114;2023-02-04T04:29:57;19.75;;;4.10;;
59169;SDS011;52474;52.236;5.114;2023-02-04T04:32:23;17.33;;;3.45;;
59169;SDS011;52474;52.236;5.114;2023-02-04T04:34:48;18.38;;;4.47;;
59169;SDS011;52474;52.236;5.114;2023-02-04T04:37:14;26.08;;;4.22;;
59169;SDS011;52474;52.236;5.114;2023-02-04T04:39:40;27.00;;;4.25;;
59169;SDS011;52474;52.236;5.114;2023-02-04T04:42:06;20.60;;;4.82;;
59169;SDS011;52474;52.236;5.114;2023-02-04T04:44:31;18.10;;;5.32;;
59169;SDS011;52474;52.236;5.114;2023-02-04T04:46:57;20.83;;;5.43;;
59169;SDS011;52474;52.236;5.114;2023-02-04T04:49:22;20.90;;;4.80;;
59169;SDS011;52474;52.236;5.114;2023-02-04T04:51:48;17.85;;;3.97;;
59169;SDS011;52474;52.236;5.114;2023-02-04T04:54:14;23.75;;;4.60;;
59169;SDS011;52474;52.236;5.114;2023-02-04T04:56:39;17.85;;;4.30;;
59169;SDS011;52474;52.236;5.114;2023-02-04T04:59:05;18.95;;;4.35;;
59169;SDS011;52474;52.236;5.114;2023-02-04T05:01:31;29.17;;;5.28;;
59169;SDS011;52474;52.236;5.114;2023-02-04T05:03:57;10.73;;;2.90;;
59169;SDS011;52474;52.236;5.114;2023-02-04T05:06:22;14.85;;;3.28;;
59169;SDS011;52474;52.236;5.114;2023-02-04T05:08:52;13.10;;;3.17;;
59169;SDS011;52474;52.236;5.114;2023-02-04T05:11:19;17.63;;;3.65;;
59169;SDS011;52474;52.236;5.114;2023-02-04T05:13:45;13.63;;;3.28;;
59169;SDS011;52474;52.236;5.114;2023-02-04T05:16:11;20.00;;;3.63;;
59169;SDS011;52474;52.236;5.114;2023-02-04T05:18:38;18.17;;;3.90;;
59169;SDS011;52474;52.236;5.114;2023-02-04T05:21:04;14.60;;;3.38;;
59169;SDS011;52474;52.236;5.114;2023-02-04T05:23:31;19.02;;;4.10;;
59169;SDS011;52474;52.236;5.114;2023-02-04T05:25:57;16.05;;;3.95;;
59169;SDS011;52474;52.236;5.114;2023-02-04T05:28:22;20.88;;;3.90;;
59169;SDS011;52474;52.236;5.114;2023-02-04T05:30:48;20.38;;;4.70;;
59169;SDS011;52474;52.236;5.114;2023-02-04T05:33:14;20.50;;;4.65;;
59169;SDS011;52474;52.236;5.114;2023-02-04T05:35:39;19.27;;;4.20;;
59169;SDS011;52474;52.236;5.114;2023-02-04T05:38:05;12.63;;;3.97;;
59169;SDS011;52474;52.236;5.114;2023-02-04T05:40:31;17.83;;;4.53;;
59169;SDS011;52474;52.236;5.114;2023-02-04T05:42:57;15.05;;;4.25;;
59169;SDS011;52474;52.236;5.114;2023-02-04T05:45:22;18.73;;;4.68;;
59169;SDS011;52474;52.236;5.114;2023-02-04T05:47:48;15.63;;;4.55;;
59169;SDS011;52474;52.236;5.114;2023-02-04T05:50:14;21.15;;;5.65;;
59169;SDS011;52474;52.236;5.114;2023-02-04T05:52:40;22.80;;;5.15;;
59169;SDS011;52474;52.236;5.114;2023-02-04T05:55:06;30.15;;;6.07;;
59169;SDS011;52474;52.236;5.114;2023-02-04T05:57:33;19.98;;;5.97;;
59169;SDS011;52474;52.236;5.114;2023-02-04T05:59:58;25.33;;;5.95;;
59169;SDS011;52474;52.236;5.114;2023-02-04T06:02:24;28.58;;;7.75;;
59169;SDS011;52474;52.236;5.114;2023-02-04T06:04:49;24.63;;;5.97;;
59169;SDS011;52474;52.236;5.114;2023-02-04T06:07:15;33.50;;;7.30;;
59169;SDS011;52474;52.236;5.114;2023-02-04T06:09:44;22.45;;;6.13;;
59169;SDS011;52474;52.236;5.114;2023-02-04T06:12:10;28.05;;;7.72;;
59169;SDS011;52474;52.236;5.114;2023-02-04T06:14:35;23.58;;;6.78;;
59169;SDS011;52474;52.236;5.114;2023-02-04T06:17:01;28.75;;;5.85;;
59169;SDS011;52474;52.236;5.114;2023-02-04T06:19:27;28.30;;;5.55;;
59169;SDS011;52474;52.236;5.114;2023-02-04T06:21:52;29.35;;;6.72;;
59169;SDS011;52474;52.236;5.114;2023-02-04T06:24:18;26.17;;;6.65;;
59169;SDS011;52474;52.236;5.114;2023-02-04T06:26:44;18.08;;;5.13;;
59169;SDS011;52474;52.236;5.114;2023-02-04T06:29:10;25.58;;;6.90;;
59169;SDS011;52474;52.236;5.114;2023-02-04T06:31:36;32.05;;;6.90;;
59169;SDS011;52474;52.236;5.114;2023-02-04T06:34:03;30.15;;;6.43;;
59169;SDS011;52474;52.236;5.114;2023-02-04T06:36:29;27.33;;;6.18;;
59169;SDS011;52474;52.236;5.114;2023-02-04T06:38:55;26.13;;;5.75;;
59169;SDS011;52474;52.236;5.114;2023-02-04T06:41:21;24.58;;;6.03;;
59169;SDS011;52474;52.236;5.114;2023-02-04T06:43:47;28.98;;;6.30;;
59169;SDS011;52474;52.236;5.114;2023-02-04T06:46:13;21.55;;;5.82;;
59169;SDS011;52474;52.236;5.114;2023-02-04T06:48:38;18.85;;;6.25;;
59169;SDS011;52474;52.236;5.114;2023-02-04T06:51:04;27.27;;;6.85;;
59169;SDS011;52474;52.236;5.114;2023-02-04T06:53:30;25.10;;;5.95;;
59169;SDS011;52474;52.236;5.114;2023-02-04T06:55:55;27.75;;;7.10;;
59169;SDS011;52474;52.236;5.114;2023-02-04T06:58:21;26.90;;;6.13;;
59169;SDS011;52474;52.236;5.114;2023-02-04T07:00:47;23.55;;;6.50;;
59169;SDS011;52474;52.236;5.114;2023-02-04T07:03:13;22.38;;;5.30;;
59169;SDS011;52474;52.236;5.114;2023-02-04T07:05:38;28.05;;;6.68;;
59169;SDS011;52474;52.236;5.114;2023-02-04T07:08:04;23.95;;;6.20;;
59169;SDS011;52474;52.236;5.114;2023-02-04T07:10:30;30.20;;;7.63;;
59169;SDS011;52474;52.236;5.114;2023-02-04T07:12:57;32.72;;;7.13;;
59169;SDS011;52474;52.236;5.114;2023-02-04T07:15:22;23.65;;;6.30;;
59169;SDS011;52474;52.236;5.114;2023-02-04T07:17:48;26.58;;;6.60;;
59169;SDS011;52474;52.236;5.114;2023-02-04T07:20:14;26.27;;;7.72;;
59169;SDS011;52474;52.236;5.114;2023-02-04T07:22:40;31.95;;;13.48;;
59169;SDS011;52474;52.236;5.114;2023-02-04T07:25:06;22.58;;;6.80;;
59169;SDS011;52474;52.236;5.114;2023-02-04T07:27:33;29.10;;;7.60;;
59169;SDS011;52474;52.236;5.114;2023-02-04T07:29:58;28.00;;;7.70;;
59169;SDS011;52474;52.236;5.114;2023-02-04T07:32:24;28.73;;;7.30;;
59169;SDS011;52474;52.236;5.114;2023-02-04T07:34:52;22.27;;;7.00;;
59169;SDS011;52474;52.236;5.114;2023-02-04T07:37:18;31.75;;;7.60;;
59169;SDS011;52474;52.236;5.114;2023-02-04T07:39:45;23.90;;;7.25;;
59169;SDS011;52474;52.236;5.114;2023-02-04T07:42:10;23.35;;;7.45;;
59169;SDS011;52474;52.236;5.114;2023-02-04T07:44:43;28.25;;;6.88;;
59169;SDS011;52474;52.236;5.114;2023-02-04T07:47:09;21.30;;;7.25;;
59169;SDS011;52474;52.236;5.114;2023-02-04T07:49:38;28.27;;;8.85;;
59169;SDS011;52474;52.236;5.114;2023-02-04T07:52:03;28.67;;;8.52;;
59169;SDS011;52474;52.236;5.114;2023-02-04T07:54:29;27.38;;;8.70;;
59169;SDS011;52474;52.236;5.114;2023-02-04T07:56:55;37.83;;;8.93;;
59169;SDS011;52474;52.236;5.114;2023-02-04T07:59:21;33.03;;;7.97;;
59169;SDS011;52474;52.236;5.114;2023-02-04T08:01:49;29.65;;;7.93;;
59169;SDS011;52474;52.236;5.114;2023-02-04T08:04:15;31.10;;;8.32;;
59169;SDS011;52474;52.236;5.114;2023-02-04T08:06:40;22.15;;;8.50;;
59169;SDS011;52474;52.236;5.114;2023-02-04T08:09:06;32.38;;;7.97;;
59169;SDS011;52474;52.236;5.114;2023-02-04T08:11:32;27.63;;;8.07;;
59169;SDS011;52474;52.236;5.114;2023-02-04T08:13:58;23.17;;;7.18;;
59169;SDS011;52474;52.236;5.114;2023-02-04T08:16:24;24.20;;;7.55;;
59169;SDS011;52474;52.236;5.114;2023-02-04T08:18:49;26.67;;;7.55;;
59169;SDS011;52474;52.236;5.114;2023-02-04T08:21:15;25.05;;;8.27;;
59169;SDS011;52474;52.236;5.114;2023-02-04T08:23:41;21.65;;;8.55;;
59169;SDS011;52474;52.236;5.114;2023-02-04T08:26:07;30.42;;;8.55;;
59169;SDS011;52474;52.236;5.114;2023-02-04T08:28:34;34.38;;;8.15;;
59169;SDS011;52474;52.236;5.114;2023-02-04T08:31:00;28.48;;;8.55;;
59169;SDS011;52474;52.236;5.114;2023-02-04T08:33:26;31.27;;;9.25;;
59169;SDS011;52474;52.236;5.114;2023-02-04T08:35:51;33.40;;;9.57;;
59169;SDS011;52474;52.236;5.114;2023-02-04T08:38:20;38.22;;;10.05;;
59169;SDS011;52474;52.236;5.114;2023-02-04T08:40:46;32.28;;;12.13;;
59169;SDS011;52474;52.236;5.114;2023-02-04T08:43:11;43.17;;;10.82;;
59169;SDS011;52474;52.236;5.114;2023-02-04T08:45:37;27.48;;;8.55;;
59169;SDS011;52474;52.236;5.114;2023-02-04T08:48:03;26.00;;;8.15;;
59169;SDS011;52474;52.236;5.114;2023-02-04T08:50:29;29.10;;;8.70;;
59169;SDS011;52474;52.236;5.114;2023-02-04T08:52:55;24.55;;;9.05;;
59169;SDS011;52474;52.236;5.114;2023-02-04T08:55:21;25.20;;;9.02;;
59169;SDS011;52474;52.236;5.114;2023-02-04T08:57:46;28.73;;;8.52;;
59169;SDS011;52474;52.236;5.114;2023-02-04T09:00:12;29.75;;;8.75;;
59169;SDS011;52474;52.236;5.114;2023-02-04T09:02:38;31.35;;;10.13;;
59169;SDS011;52474;52.236;5.114;2023-02-04T09:05:04;33.10;;;8.88;;
59169;SDS011;52474;52.236;5.114;2023-02-04T09:07:30;25.17;;;8.00;;
59169;SDS011;52474;52.236;5.114;2023-02-04T09:09:56;29.38;;;8.68;;
59169;SDS011;52474;52.236;5.114;2023-02-04T09:12:21;29.08;;;8.07;;
59169;SDS011;52474;52.236;5.114;2023-02-04T09:14:47;27.35;;;8.48;;
59169;SDS011;52474;52.236;5.114;2023-02-04T09:17:13;29.42;;;8.50;;
59169;SDS011;52474;52.236;5.114;2023-02-04T09:19:38;28.83;;;7.88;;
59169;SDS011;52474;52.236;5.114;2023-02-04T09:22:04;30.90;;;8.25;;
59169;SDS011;52474;52.236;5.114;2023-02-04T09:24:30;28.02;;;9.07;;
59169;SDS011;52474;52.236;5.114;2023-02-04T09:26:55;32.90;;;7.88;;
59169;SDS011;52474;52.236;5.114;2023-02-04T09:29:21;27.85;;;7.65;;
59169;SDS011;52474;52.236;5.114;2023-02-04T09:31:47;33.03;;;7.75;;
59169;SDS011;52474;52.236;5.114;2023-02-04T09:34:13;31.92;;;8.13;;
59169;SDS011;52474;52.236;5.114;2023-02-04T09:36:39;22.05;;;7.15;;
59169;SDS011;52474;52.236;5.114;2023-02-04T09:39:05;34.65;;;7.32;;
59169;SDS011;52474;52.236;5.114;2023-02-04T09:41:33;28.77;;;7.40;;
59169;SDS011;52474;52.236;5.114;2023-02-04T09:44:00;23.60;;;6.85;;
59169;SDS011;52474;52.236;5.114;2023-02-04T09:46:26;24.17;;;7.18;;
59169;SDS011;52474;52.236;5.114;2023-02-04T09:48:53;23.58;;;6.05;;
59169;SDS011;52474;52.236;5.114;2023-02-04T09:51:21;29.50;;;7.13;;
59169;SDS011;52474;52.236;5.114;2023-02-04T09:53:50;25.42;;;6.38;;
59169;SDS011;52474;52.236;5.114;2023-02-04T09:56:18;23.92;;;6.57;;
59169;SDS011;52474;52.236;5.114;2023-02-04T09:58:44;25.27;;;6.97;;
59169;SDS011;52474;52.236;5.114;2023-02-04T10:01:12;24.65;;;6.53;;
59169;SDS011;52474;52.236;5.114;2023-02-04T10:03:41;19.40;;;4.85;;
59169;SDS011;52474;52.236;5.114;2023-02-04T10:08:38;25.63;;;5.47;;
59169;SDS011;52474;52.236;5.114;2023-02-04T10:11:04;25.95;;;5.80;;
59169;SDS011;52474;52.236;5.114;2023-02-04T10:13:46;22.45;;;5.25;;
59169;SDS011;52474;52.236;5.114;2023-02-04T10:16:15;22.63;;;4.57;;
59169;SDS011;52474;52.236;5.114;2023-02-04T10:18:43;23.50;;;5.05;;
59169;SDS011;52474;52.236;5.114;2023-02-04T10:23:40;21.35;;;4.22;;
59169;SDS011;52474;52.236;5.114;2023-02-04T10:26:09;26.73;;;4.22;;
59169;SDS011;52474;52.236;5.114;2023-02-04T10:28:37;23.70;;;5.03;;
59169;SDS011;52474;52.236;5.114;2023-02-04T10:31:04;26.20;;;4.05;;
59169;SDS011;52474;52.236;5.114;2023-02-04T10:33:32;26.13;;;4.72;;
59169;SDS011;52474;52.236;5.114;2023-02-04T10:36:02;23.50;;;4.68;;
59169;SDS011;52474;52.236;5.114;2023-02-04T10:38:29;29.55;;;4.22;;
59169;SDS011;52474;52.236;5.114;2023-02-04T10:41:01;23.25;;;4.60;;
59169;SDS011;52474;52.236;5.114;2023-02-04T10:43:28;17.38;;;3.28;;
59169;SDS011;52474;52.236;5.114;2023-02-04T10:45:55;22.67;;;3.80;;
59169;SDS011;52474;52.236;5.114;2023-02-04T10:48:45;20.00;;;4.32;;
59169;SDS011;52474;52.236;5.114;2023-02-04T10:51:11;30.55;;;4.88;;
59169;SDS011;52474;52.236;5.114;2023-02-04T10:53:37;22.80;;;4.93;;
59169;SDS011;52474;52.236;5.114;2023-02-04T10:56:21;18.52;;;3.92;;
59169;SDS011;52474;52.236;5.114;2023-02-04T10:58:47;34.35;;;5.10;;
59169;SDS011;52474;52.236;5.114;2023-02-04T11:01:14;25.10;;;4.30;;
59169;SDS011;52474;52.236;5.114;2023-02-04T11:03:41;24.80;;;4.60;;
59169;SDS011;52474;52.236;5.114;2023-02-04T11:06:11;25.50;;;3.70;;
59169;SDS011;52474;52.236;5.114;2023-02-04T11:08:41;25.77;;;4.40;;
59169;SDS011;52474;52.236;5.114;2023-02-04T11:11:08;24.67;;;4.50;;
59169;SDS011;52474;52.236;5.114;2023-02-04T11:13:41;21.42;;;3.70;;
59169;SDS011;52474;52.236;5.114;2023-02-04T11:16:25;21.42;;;4.53;;
59169;SDS011;52474;52.236;5.114;2023-02-04T11:18:53;22.25;;;4.18;;
59169;SDS011;52474;52.236;5.114;2023-02-04T11:26:45;22.08;;;3.42;;
59169;SDS011;52474;52.236;5.114;2023-02-04T11:37:41;26.15;;;3.90;;
59169;SDS011;52474;52.236;5.114;2023-02-04T11:39:46;20.50;;;3.53;;
59169;SDS011;52474;52.236;5.114;2023-02-04T11:42:18;18.10;;;2.83;;
59169;SDS011;52474;52.236;5.114;2023-02-04T11:44:59;23.98;;;3.17;;
59169;SDS011;52474;52.236;5.114;2023-02-04T11:47:33;25.58;;;3.30;;
59169;SDS011;52474;52.236;5.114;2023-02-04T11:50:01;22.08;;;3.15;;
59169;SDS011;52474;52.236;5.114;2023-02-04T11:52:39;18.13;;;4.15;;
59169;SDS011;52474;52.236;5.114;2023-02-04T11:55:05;24.92;;;4.05;;
59169;SDS011;52474;52.236;5.114;2023-02-04T11:57:36;16.80;;;3.90;;
59169;SDS011;52474;52.236;5.114;2023-02-04T12:00:04;18.48;;;4.57;;
59169;SDS011;52474;52.236;5.114;2023-02-04T12:02:39;23.35;;;4.15;;
59169;SDS011;52474;52.236;5.114;2023-02-04T12:05:12;19.65;;;4.00;;
59169;SDS011;52474;52.236;5.114;2023-02-04T12:07:43;21.77;;;3.85;;
59169;SDS011;52474;52.236;5.114;2023-02-04T12:10:13;20.58;;;3.97;;
59169;SDS011;52474;52.236;5.114;2023-02-04T12:12:43;24.35;;;4.07;;
59169;SDS011;52474;52.236;5.114;2023-02-04T12:15:15;24.15;;;4.53;;
59169;SDS011;52474;52.236;5.114;2023-02-04T12:17:45;32.80;;;5.82;;
59169;SDS011;52474;52.236;5.114;2023-02-04T12:20:24;30.42;;;4.63;;
59169;SDS011;52474;52.236;5.114;2023-02-04T12:22:49;23.33;;;3.88;;
59169;SDS011;52474;52.236;5.114;2023-02-04T12:25:15;30.63;;;4.70;;
59169;SDS011;52474;52.236;5.114;2023-02-04T12:27:42;23.35;;;4.75;;
59169;SDS011;52474;52.236;5.114;2023-02-04T12:30:08;21.65;;;5.75;;
59169;SDS011;52474;52.236;5.114;2023-02-04T12:32:34;27.10;;;4.28;;
59169;SDS011;52474;52.236;5.114;2023-02-04T12:35:00;22.15;;;4.70;;
59169;SDS011;52474;52.236;5.114;2023-02-04T12:37:26;24.67;;;4.47;;
59169;SDS011;52474;52.236;5.114;2023-02-04T12:39:52;22.40;;;4.93;;
59169;SDS011;52474;52.236;5.114;2023-02-04T12:42:17;16.10;;;5.07;;
59169;SDS011;52474;52.236;5.114;2023-02-04T12:44:43;20.17;;;4.07;;
59169;SDS011;52474;52.236;5.114;2023-02-04T12:47:09;18.98;;;3.85;;
59169;SDS011;52474;52.236;5.114;2023-02-04T12:49:34;21.50;;;4.45;;
59169;SDS011;52474;52.236;5.114;2023-02-04T12:52:03;25.60;;;4.43;;
59169;SDS011;52474;52.236;5.114;2023-02-04T12:54:29;23.83;;;4.38;;
59169;SDS011;52474;52.236;5.114;2023-02-04T12:56:55;25.65;;;5.25;;
59169;SDS011;52474;52.236;5.114;2023-02-04T12:59:25;18.85;;;5.50;;
59169;SDS011;52474;52.236;5.114;2023-02-04T13:01:50;20.60;;;3.92;;
59169;SDS011;52474;52.236;5.114;2023-02-04T13:04:16;17.10;;;3.97;;
59169;SDS011;52474;52.236;5.114;2023-02-04T13:06:42;22.23;;;4.18;;
59169;SDS011;52474;52.236;5.114;2023-02-04T13:09:07;21.23;;;3.70;;
59169;SDS011;52474;52.236;5.114;2023-02-04T13:11:33;14.57;;;4.10;;
59169;SDS011;52474;52.236;5.114;2023-02-04T13:13:59;21.38;;;5.55;;
59169;SDS011;52474;52.236;5.114;2023-02-04T13:16:25;16.90;;;4.72;;
59169;SDS011;52474;52.236;5.114;2023-02-04T13:18:50;20.92;;;4.88;;
59169;SDS011;52474;52.236;5.114;2023-02-04T13:21:16;24.65;;;4.88;;
59169;SDS011;52474;52.236;5.114;2023-02-04T13:23:42;15.98;;;3.92;;
59169;SDS011;52474;52.236;5.114;2023-02-04T13:26:08;21.42;;;4.07;;
59169;SDS011;52474;52.236;5.114;2023-02-04T13:28:34;25.48;;;3.97;;
59169;SDS011;52474;52.236;5.114;2023-02-04T13:31:00;19.35;;;4.63;;
59169;SDS011;52474;52.236;5.114;2023-02-04T13:33:26;16.52;;;3.88;;
59169;SDS011;52474;52.236;5.114;2023-02-04T13:35:52;19.02;;;3.97;;
59169;SDS011;52474;52.236;5.114;2023-02-04T13:38:17;16.45;;;3.95;;
59169;SDS011;52474;52.236;5.114;2023-02-04T13:40:43;15.52;;;3.17;;
59169;SDS011;52474;52.236;5.114;2023-02-04T13:43:09;22.33;;;3.53;;
59169;SDS011;52474;52.236;5.114;2023-02-04T13:45:35;16.08;;;3.55;;
59169;SDS011;52474;52.236;5.114;2023-02-04T13:48:00;14.75;;;3.15;;
59169;SDS011;52474;52.236;5.114;2023-02-04T13:50:26;15.48;;;3.67;;
59169;SDS011;52474;52.236;5.114;2023-02-04T13:52:52;14.40;;;3.55;;
59169;SDS011;52474;52.236;5.114;2023-02-04T13:55:19;14.00;;;3.05;;
59169;SDS011;52474;52.236;5.114;2023-02-04T13:57:45;13.95;;;3.30;;
59169;SDS011;52474;52.236;5.114;2023-02-04T14:00:11;14.70;;;3.05;;
59169;SDS011;52474;52.236;5.114;2023-02-04T14:02:40;11.90;;;2.70;;
59169;SDS011;52474;52.236;5.114;2023-02-04T14:05:07;17.45;;;2.60;;
59169;SDS011;52474;52.236;5.114;2023-02-04T14:07:33;16.48;;;3.67;;
59169;SDS011;52474;52.236;5.114;2023-02-04T14:09:58;11.95;;;2.92;;
59169;SDS011;52474;52.236;5.114;2023-02-04T14:12:24;18.70;;;3.55;;
59169;SDS011;52474;52.236;5.114;2023-02-04T14:14:50;16.58;;;2.88;;
59169;SDS011;52474;52.236;5.114;2023-02-04T14:17:15;15.07;;;2.75;;
59169;SDS011;52474;52.236;5.114;2023-02-04T14:19:41;17.85;;;2.92;;
59169;SDS011;52474;52.236;5.114;2023-02-04T14:22:07;18.88;;;3.42;;
59169;SDS011;52474;52.236;5.114;2023-02-04T14:24:35;15.27;;;3.50;;
59169;SDS011;52474;52.236;5.114;2023-02-04T14:27:03;20.92;;;3.25;;
59169;SDS011;52474;52.236;5.114;2023-02-04T14:29:31;15.35;;;3.17;;
59169;SDS011;52474;52.236;5.114;2023-02-04T14:31:57;15.38;;;2.92;;
59169;SDS011;52474;52.236;5.114;2023-02-04T14:34:23;9.52;;;2.30;;
59169;SDS011;52474;52.236;5.114;2023-02-04T14:36:49;13.73;;;2.42;;
59169;SDS011;52474;52.236;5.114;2023-02-04T14:39:15;8.70;;;2.00;;
59169;SDS011;52474;52.236;5.114;2023-02-04T14:41:40;9.48;;;1.90;;
59169;SDS011;52474;52.236;5.114;2023-02-04T14:44:06;9.73;;;1.85;;
59169;SDS011;52474;52.236;5.114;2023-02-04T14:46:32;9.15;;;2.88;;
59169;SDS011;52474;52.236;5.114;2023-02-04T14:48:57;15.23;;;2.63;;